createdAt,value
2022-08-17T00:00:34.450Z,46.00
2022-08-17T00:03:15.087Z,46.67
2022-08-17T00:05:42.340Z,47.42
2022-08-17T00:08:09.922Z,49.47
2022-08-17T00:10:37.549Z,54.15
2022-08-17T00:13:09.094Z,42.60
2022-08-17T00:15:36.457Z,51.65
2022-08-17T00:18:04.073Z,50.97
2022-08-17T00:20:51.509Z,46.90
2022-08-17T00:23:18.865Z,48.15
2022-08-17T00:25:47.669Z,46.13
2022-08-17T00:28:16.261Z,49.05
2022-08-17T00:30:51.305Z,57.28
2022-08-17T00:33:27.393Z,56.55
2022-08-17T00:35:55.261Z,49.28
2022-08-17T00:38:23.252Z,51.50
2022-08-17T00:41:01.189Z,50.35
2022-08-17T00:43:49.655Z,46.58
2022-08-17T00:46:19.045Z,49.83
2022-08-17T00:48:47.116Z,48.08
2022-08-17T00:51:17.348Z,45.10
2022-08-17T00:53:46.230Z,52.45
2022-08-17T00:56:15.989Z,51.20
2022-08-17T00:58:45.359Z,48.03
2022-08-17T01:01:13.006Z,48.80
2022-08-17T01:03:49.572Z,46.25
2022-08-17T01:06:16.792Z,44.67
2022-08-17T01:08:44.088Z,50.47
2022-08-17T01:11:11.386Z,54.95
2022-08-17T01:13:41.580Z,54.45
2022-08-17T01:16:26.586Z,49.35
2022-08-17T01:19:05.018Z,53.90
2022-08-17T01:21:35.346Z,47.88
2022-08-17T01:24:03.086Z,46.72
2022-08-17T01:26:31.343Z,49.15
2022-08-17T01:28:58.823Z,55.15
2022-08-17T01:31:29.057Z,51.60
2022-08-17T01:33:57.949Z,47.65
2022-08-17T01:36:25.157Z,54.17
2022-08-17T01:38:52.418Z,48.78
2022-08-17T01:41:20.457Z,50.45
2022-08-17T01:43:49.895Z,49.53
2022-08-17T01:46:20.125Z,49.97
2022-08-17T01:48:47.663Z,49.63
2022-08-17T01:51:16.125Z,50.53
2022-08-17T01:53:46.933Z,50.53
2022-08-17T01:58:41.775Z,58.05
2022-08-17T02:01:09.152Z,53.30
2022-08-17T02:03:37.140Z,53.38
2022-08-17T02:06:05.410Z,57.00
2022-08-17T02:08:38.816Z,52.85
2022-08-17T02:11:11.262Z,56.20
2022-08-17T02:13:40.139Z,51.25
2022-08-17T02:16:07.454Z,50.90
2022-08-17T02:18:34.909Z,48.42
2022-08-17T02:21:02.689Z,46.17
2022-08-17T02:23:31.189Z,43.60
2022-08-17T02:25:59.785Z,48.35
2022-08-17T02:28:29.823Z,44.05
2022-08-17T02:31:00.836Z,46.30
2022-08-17T02:33:43.254Z,44.78
2022-08-17T02:36:12.690Z,47.65
2022-08-17T02:38:40.661Z,47.65
2022-08-17T02:41:08.157Z,97.85
2022-08-17T02:43:35.891Z,59.83
2022-08-17T02:46:03.138Z,60.28
2022-08-17T02:48:32.057Z,58.67
2022-08-17T02:51:00.436Z,74.18
2022-08-17T02:53:33.671Z,88.72
2022-08-17T02:56:03.357Z,89.88
2022-08-17T02:58:35.367Z,69.90
2022-08-17T03:01:05.206Z,84.18
2022-08-17T03:03:32.383Z,90.32
2022-08-17T03:05:59.580Z,81.85
2022-08-17T03:08:27.264Z,78.28
2022-08-17T03:10:54.523Z,87.45
2022-08-17T03:13:22.264Z,103.82
2022-08-17T03:15:49.996Z,115.25
2022-08-17T03:18:24.486Z,114.90
2022-08-17T03:20:57.565Z,93.45
2022-08-17T03:23:25.660Z,121.32
2022-08-17T03:25:53.950Z,90.93
2022-08-17T03:28:22.392Z,77.65
2022-08-17T03:30:51.315Z,74.90
2022-08-17T03:33:19.102Z,90.95
2022-08-17T03:35:46.572Z,105.82
2022-08-17T03:38:15.106Z,101.68
2022-08-17T03:40:57.105Z,99.10
2022-08-17T03:43:27.101Z,92.07
2022-08-17T03:46:34.698Z,89.50
2022-08-17T03:49:19.019Z,94.80
2022-08-17T03:52:04.780Z,93.07
2022-08-17T03:54:50.934Z,88.75
2022-08-17T03:57:19.116Z,82.53
2022-08-17T03:59:46.503Z,87.28
2022-08-17T04:02:22.796Z,93.45
2022-08-17T04:04:51.059Z,89.57
2022-08-17T04:07:19.520Z,85.25
2022-08-17T04:09:46.924Z,90.53
2022-08-17T04:12:15.612Z,84.95
2022-08-17T04:14:53.722Z,87.20
2022-08-17T04:17:22.485Z,121.32
2022-08-17T04:19:49.967Z,90.95
2022-08-17T04:22:33.121Z,101.22
2022-08-17T04:25:02.580Z,76.70
2022-08-17T04:27:29.782Z,78.25
2022-08-17T04:29:57.137Z,75.10
2022-08-17T04:32:59.482Z,82.82
2022-08-17T04:35:11.446Z,75.35
2022-08-17T04:37:38.620Z,74.72
2022-08-17T04:40:27.180Z,65.47
2022-08-17T04:43:08.686Z,74.82
2022-08-17T04:45:39.483Z,73.85
2022-08-17T04:48:06.931Z,63.78
2022-08-17T04:50:36.094Z,58.97
2022-08-17T04:53:04.048Z,66.40
2022-08-17T04:55:31.875Z,64.00
2022-08-17T04:57:59.179Z,69.35
2022-08-17T05:00:26.700Z,74.00
2022-08-17T05:02:55.397Z,71.82
2022-08-17T05:05:25.424Z,67.10
2022-08-17T05:07:54.359Z,74.10
2022-08-17T05:10:22.634Z,63.60
2022-08-17T05:12:58.661Z,72.57
2022-08-17T05:15:26.541Z,90.40
2022-08-17T05:17:53.619Z,103.57
2022-08-17T05:20:21.553Z,96.15
2022-08-17T05:22:53.070Z,90.40
2022-08-17T05:25:22.484Z,90.63
2022-08-17T05:27:53.217Z,78.10
2022-08-17T05:30:21.119Z,90.60
2022-08-17T05:33:07.900Z,103.15
2022-08-17T05:35:37.459Z,95.03
2022-08-17T05:38:05.474Z,102.30
2022-08-17T05:40:33.030Z,101.47
2022-08-17T05:43:07.762Z,113.63
2022-08-17T05:45:55.494Z,111.55
2022-08-17T05:48:35.258Z,112.57
2022-08-17T05:51:09.694Z,111.93
2022-08-17T05:53:52.200Z,109.57
2022-08-17T05:56:34.514Z,113.07
2022-08-17T05:59:09.897Z,110.45
2022-08-17T06:01:49.135Z,89.38
2022-08-17T06:04:35.139Z,75.45
2022-08-17T06:07:07.494Z,87.05
2022-08-17T06:09:46.346Z,88.05
2022-08-17T06:12:31.950Z,80.60
2022-08-17T06:15:10.757Z,76.38
2022-08-17T06:17:38.234Z,75.93
2022-08-17T06:20:08.530Z,78.07
2022-08-17T06:22:38.858Z,73.82
2022-08-17T06:25:10.290Z,75.68
2022-08-17T06:27:41.199Z,77.18
2022-08-17T06:30:24.877Z,78.20
2022-08-17T06:32:53.284Z,81.00
2022-08-17T06:35:32.075Z,80.80
2022-08-17T06:38:37.701Z,85.03
2022-08-17T06:41:05.970Z,76.47
2022-08-17T06:43:40.273Z,86.60
2022-08-17T06:46:11.561Z,108.18
2022-08-17T06:48:47.029Z,91.15
2022-08-17T06:51:17.681Z,74.00
2022-08-17T06:54:00.798Z,58.25
2022-08-17T06:56:53.221Z,79.95
2022-08-17T06:59:26.299Z,65.10
2022-08-17T07:02:05.318Z,66.22
2022-08-17T07:04:34.534Z,65.10
2022-08-17T07:07:01.981Z,60.78
2022-08-17T07:09:34.352Z,73.45
2022-08-17T07:12:15.988Z,68.43
2022-08-17T07:15:05.343Z,68.85
2022-08-17T07:17:46.883Z,69.00
2022-08-17T07:20:22.317Z,56.83
2022-08-17T07:22:59.905Z,50.03
2022-08-17T07:25:30.723Z,47.53
2022-08-17T07:28:00.359Z,50.03
2022-08-17T07:30:47.265Z,42.50
2022-08-17T07:33:20.499Z,45.80
2022-08-17T07:35:49.926Z,41.03
2022-08-17T07:38:24.691Z,37.08
2022-08-17T07:41:03.738Z,41.25
2022-08-17T07:43:32.936Z,39.42
2022-08-17T07:46:21.747Z,45.53
2022-08-17T07:48:54.014Z,35.85
2022-08-17T07:51:25.289Z,38.35
2022-08-17T07:53:54.328Z,36.08
2022-08-17T07:56:36.379Z,37.55
2022-08-17T07:59:11.524Z,40.10
2022-08-17T08:01:41.587Z,39.50
2022-08-17T08:04:43.431Z,35.25
2022-08-17T08:07:18.914Z,36.75
2022-08-17T08:10:00.240Z,33.50
2022-08-17T08:12:41.209Z,35.28
2022-08-17T08:17:46.559Z,29.98
2022-08-17T08:20:42.480Z,29.65
2022-08-17T08:23:11.496Z,30.65
2022-08-17T08:25:53.243Z,29.40
2022-08-17T08:28:27.282Z,25.25
2022-08-17T08:31:00.703Z,26.08
2022-08-17T08:33:37.580Z,27.13
2022-08-17T08:36:04.951Z,27.00
2022-08-17T08:38:32.339Z,22.27
2022-08-17T08:40:59.716Z,28.35
2022-08-17T08:43:52.214Z,21.85
2022-08-17T08:46:38.263Z,28.05
2022-08-17T08:49:17.270Z,25.95
2022-08-17T08:51:46.440Z,23.15
2022-08-17T08:54:16.579Z,22.63
2022-08-17T08:57:19.869Z,22.20
2022-08-17T08:59:58.325Z,25.00
2022-08-17T09:02:37.566Z,22.98
2022-08-17T09:05:23.443Z,23.73
2022-08-17T09:08:04.520Z,26.90
2022-08-17T09:10:49.891Z,26.95
2022-08-17T09:13:23.109Z,22.65
2022-08-17T09:15:57.326Z,20.33
2022-08-17T09:19:00.613Z,23.73
2022-08-17T09:21:29.424Z,21.08
2022-08-17T09:24:21.013Z,20.60
2022-08-17T09:27:03.882Z,20.85
2022-08-17T09:29:36.451Z,18.52
2022-08-17T09:32:10.537Z,20.20
2022-08-17T09:34:40.264Z,18.58
2022-08-17T09:37:23.578Z,19.20
2022-08-17T09:39:56.936Z,17.83
2022-08-17T09:42:24.227Z,20.65
2022-08-17T09:44:54.629Z,18.20
2022-08-17T09:47:30.588Z,17.67
2022-08-17T09:50:07.115Z,21.10
2022-08-17T09:52:34.320Z,19.00
2022-08-17T09:55:02.002Z,18.02
2022-08-17T09:57:51.249Z,20.10
2022-08-17T10:00:25.124Z,19.45
2022-08-17T10:02:55.195Z,19.40
2022-08-17T10:05:43.206Z,16.63
2022-08-17T10:08:22.859Z,15.90
2022-08-17T10:10:58.967Z,12.82
2022-08-17T10:13:27.223Z,12.07
2022-08-17T10:15:56.555Z,10.90
2022-08-17T10:18:25.480Z,10.65
2022-08-17T10:21:21.950Z,8.90
2022-08-17T10:24:10.429Z,8.40
2022-08-17T10:26:56.925Z,7.95
2022-08-17T10:29:29.011Z,8.48
2022-08-17T10:32:04.184Z,11.25
2022-08-17T10:34:40.427Z,9.18
2022-08-17T10:37:20.474Z,13.50
2022-08-17T10:39:52.760Z,10.27
2022-08-17T10:42:30.762Z,9.77
2022-08-17T10:45:03.697Z,11.43
2022-08-17T10:47:55.380Z,12.43
2022-08-17T10:50:42.585Z,12.70
2022-08-17T10:53:10.945Z,12.20
2022-08-17T10:55:39.127Z,13.77
2022-08-17T10:58:28.571Z,14.18
2022-08-17T11:00:55.916Z,18.17
2022-08-17T11:03:24.930Z,18.15
2022-08-17T11:05:58.812Z,18.13
2022-08-17T11:08:26.140Z,17.52
2022-08-17T11:11:10.494Z,21.52
2022-08-17T11:13:47.552Z,17.08
2022-08-17T11:16:17.693Z,20.15
2022-08-17T11:18:52.607Z,20.77
2022-08-17T11:21:23.050Z,21.67
2022-08-17T11:24:02.826Z,22.92
2022-08-17T11:26:33.004Z,19.73
2022-08-17T11:29:03.235Z,22.95
2022-08-17T11:31:38.360Z,25.40
2022-08-17T11:34:13.706Z,28.75
2022-08-17T11:37:01.153Z,25.67
2022-08-17T11:39:47.321Z,28.80
2022-08-17T11:42:34.422Z,31.63
2022-08-17T11:45:32.073Z,34.22
2022-08-17T11:48:41.573Z,34.33
2022-08-17T11:51:30.980Z,36.92
2022-08-17T11:54:30.717Z,38.88
2022-08-17T11:56:49.037Z,39.40
2022-08-17T11:59:35.902Z,43.42
2022-08-17T12:02:21.854Z,37.33
2022-08-17T12:05:04.823Z,37.13
2022-08-17T12:07:43.489Z,45.50
2022-08-17T12:10:12.233Z,42.10
2022-08-17T12:12:43.532Z,42.80
2022-08-17T12:15:17.381Z,41.10
2022-08-17T12:17:52.876Z,44.08
2022-08-17T12:20:24.425Z,42.88
2022-08-17T12:22:54.876Z,38.60
2022-08-17T12:25:30.386Z,39.72
2022-08-17T12:28:06.223Z,41.63
2022-08-17T12:30:35.520Z,38.53
2022-08-17T12:33:02.897Z,52.00
2022-08-17T12:35:30.051Z,41.55
2022-08-17T12:37:57.985Z,41.95
2022-08-17T12:40:27.149Z,43.10
2022-08-17T12:42:56.476Z,41.33
2022-08-17T12:45:27.070Z,37.20
2022-08-17T12:48:21.865Z,40.03
2022-08-17T12:50:50.157Z,47.53
2022-08-17T12:53:21.083Z,39.65
2022-08-17T12:55:49.601Z,42.67
2022-08-17T12:58:22.589Z,44.20
2022-08-17T13:00:51.406Z,39.17
2022-08-17T13:03:20.914Z,39.53
2022-08-17T13:06:06.785Z,37.78
2022-08-17T13:08:36.383Z,39.50
2022-08-17T13:11:09.777Z,33.58
2022-08-17T13:13:39.191Z,41.35
2022-08-17T13:16:14.462Z,38.13
2022-08-17T13:19:07.917Z,39.63
2022-08-17T13:21:36.402Z,33.45
2022-08-17T13:24:14.970Z,37.35
2022-08-17T13:27:02.377Z,39.58
2022-08-17T13:29:35.615Z,40.40
2022-08-17T13:32:13.138Z,38.40
2022-08-17T13:34:59.633Z,40.97
2022-08-17T13:37:34.860Z,44.00
2022-08-17T13:40:25.315Z,42.42
2022-08-17T13:42:54.163Z,38.63
2022-08-17T13:45:36.470Z,39.10
2022-08-17T13:48:11.856Z,43.08
2022-08-17T13:50:50.558Z,37.78
2022-08-17T13:53:32.852Z,35.97
2022-08-17T13:56:02.482Z,38.03
2022-08-17T13:58:39.848Z,33.70
2022-08-17T14:01:25.874Z,34.03
2022-08-17T14:03:53.038Z,32.55
2022-08-17T14:06:51.453Z,33.05
2022-08-17T14:09:09.031Z,30.85
2022-08-17T14:11:36.590Z,37.08
2022-08-17T14:14:04.332Z,37.72
2022-08-17T14:16:31.585Z,36.53
2022-08-17T14:18:58.878Z,36.38
2022-08-17T14:21:26.236Z,35.55
2022-08-17T14:23:54.794Z,39.13
2022-08-17T14:26:23.301Z,39.22
2022-08-17T14:28:56.659Z,33.22
2022-08-17T14:31:24.967Z,37.90
2022-08-17T14:33:52.429Z,37.22
2022-08-17T14:36:19.697Z,40.80
2022-08-17T14:38:46.848Z,36.70
2022-08-17T14:41:19.995Z,33.38
2022-08-17T14:43:49.115Z,33.55
2022-08-17T14:46:16.524Z,34.85
2022-08-17T14:48:44.031Z,35.95
2022-08-17T14:51:12.002Z,38.95
2022-08-17T14:53:39.270Z,39.92
2022-08-17T14:56:06.609Z,38.85
2022-08-17T14:58:33.961Z,36.42
2022-08-17T15:01:01.656Z,38.97
2022-08-17T15:03:29.131Z,38.58
2022-08-17T15:05:56.431Z,39.67
2022-08-17T15:08:23.579Z,43.53
2022-08-17T15:10:54.182Z,38.33
2022-08-17T15:15:49.114Z,41.50
2022-08-17T15:18:16.289Z,38.28
2022-08-17T15:20:44.528Z,37.67
2022-08-17T15:23:16.493Z,39.53
2022-08-17T15:25:43.829Z,39.58
2022-08-17T15:28:11.986Z,37.30
2022-08-17T15:30:43.263Z,40.50
2022-08-17T15:33:21.395Z,38.78
2022-08-17T15:35:53.408Z,37.65
2022-08-17T15:38:21.983Z,40.45
2022-08-17T15:40:50.187Z,43.25
2022-08-17T15:43:27.038Z,43.47
2022-08-17T15:46:02.595Z,47.83
2022-08-17T15:48:43.387Z,42.65
2022-08-17T15:51:15.597Z,34.70
2022-08-17T15:53:43.998Z,33.95
2022-08-17T15:56:13.777Z,38.20
2022-08-17T15:58:42.277Z,36.35
2022-08-17T16:01:16.481Z,36.58
2022-08-17T16:04:03.916Z,37.17
2022-08-17T16:06:32.212Z,46.72
2022-08-17T16:09:00.794Z,41.85
2022-08-17T16:11:28.081Z,48.97
2022-08-17T16:13:56.055Z,50.92
2022-08-17T16:16:24.225Z,45.20
2022-08-17T16:18:54.720Z,49.55
2022-08-17T16:21:26.125Z,47.50
2022-08-17T16:24:04.305Z,51.45
2022-08-17T16:26:32.968Z,55.05
2022-08-17T16:29:01.424Z,59.50
2022-08-17T16:31:29.365Z,67.40
2022-08-17T16:33:58.489Z,64.80
2022-08-17T16:36:55.150Z,66.40
2022-08-17T16:39:24.136Z,54.28
2022-08-17T16:41:51.378Z,80.43
2022-08-17T16:44:20.326Z,73.70
2022-08-17T16:46:48.298Z,72.03
2022-08-17T16:49:35.795Z,67.00
2022-08-17T16:52:07.469Z,70.88
2022-08-17T16:54:35.645Z,64.90
2022-08-17T16:57:05.249Z,83.32
2022-08-17T16:59:41.840Z,96.90
2022-08-17T17:02:11.776Z,87.32
2022-08-17T17:04:50.053Z,108.55
2022-08-17T17:07:35.739Z,97.50
2022-08-17T17:10:08.744Z,121.60
2022-08-17T17:13:02.594Z,164.68
2022-08-17T17:15:28.207Z,116.90
2022-08-17T17:17:58.607Z,108.13
2022-08-17T17:20:35.378Z,112.00
2022-08-17T17:23:08.216Z,183.38
2022-08-17T17:25:45.303Z,199.13
2022-08-17T17:28:51.752Z,129.07
2022-08-17T17:31:21.073Z,143.90
2022-08-17T17:33:54.121Z,109.88
2022-08-17T17:36:51.503Z,127.75
2022-08-17T17:39:20.542Z,139.98
2022-08-17T17:41:56.376Z,104.35
2022-08-17T17:44:31.488Z,111.70
2022-08-17T17:46:59.860Z,98.88
2022-08-17T17:49:31.595Z,96.88
2022-08-17T17:52:19.295Z,100.68
2022-08-17T17:54:49.579Z,101.20
2022-08-17T17:57:25.707Z,122.17
2022-08-17T18:00:07.161Z,89.70
2022-08-17T18:02:53.192Z,86.55
2022-08-17T18:05:23.245Z,90.53
2022-08-17T18:07:54.410Z,86.80
2022-08-17T18:10:30.188Z,74.43
2022-08-17T18:13:22.475Z,73.07
2022-08-17T18:15:54.419Z,72.55
2022-08-17T18:18:37.535Z,84.47
2022-08-17T18:21:18.980Z,78.22
2022-08-17T18:23:47.467Z,93.28
2022-08-17T18:26:34.041Z,68.00
2022-08-17T18:29:02.285Z,82.85
2022-08-17T18:31:29.438Z,77.97
2022-08-17T18:34:36.134Z,76.15
2022-08-17T18:37:07.231Z,77.82
2022-08-17T18:39:38.859Z,80.70
2022-08-17T18:42:23.433Z,75.70
2022-08-17T18:44:54.928Z,79.93
2022-08-17T18:47:22.803Z,69.63
2022-08-17T18:49:56.271Z,68.95
2022-08-17T18:52:27.737Z,61.13
2022-08-17T18:55:14.195Z,60.10
2022-08-17T18:57:45.715Z,58.58
2022-08-17T19:00:19.214Z,60.85
2022-08-17T19:02:57.791Z,54.90
2022-08-17T19:05:31.222Z,58.40
2022-08-17T19:08:16.925Z,59.38
2022-08-17T19:10:46.057Z,66.63
2022-08-17T19:13:24.523Z,70.07
2022-08-17T19:16:14.411Z,69.45
2022-08-17T19:18:58.773Z,62.75
2022-08-17T19:21:56.133Z,71.30
2022-08-17T19:24:24.889Z,63.53
2022-08-17T19:26:55.099Z,66.20
2022-08-17T19:29:45.245Z,65.05
2022-08-17T19:32:16.034Z,59.35
2022-08-17T19:34:44.447Z,57.00
2022-08-17T19:37:25.855Z,70.60
2022-08-17T19:40:01.819Z,64.38
2022-08-17T19:42:32.504Z,65.47
2022-08-17T19:45:08.085Z,64.78
2022-08-17T19:47:54.792Z,62.15
2022-08-17T19:50:38.564Z,57.40
2022-08-17T19:53:23.949Z,56.20
2022-08-17T19:56:17.533Z,67.03
2022-08-17T19:59:03.893Z,65.70
2022-08-17T20:01:34.853Z,72.28
2022-08-17T20:04:13.832Z,66.78
2022-08-17T20:06:43.629Z,61.67
2022-08-17T20:09:16.989Z,72.70
2022-08-17T20:11:47.429Z,74.15
2022-08-17T20:14:15.886Z,61.80
2022-08-17T20:16:43.138Z,63.58
2022-08-17T20:19:20.431Z,61.55
2022-08-17T20:21:57.235Z,68.13
2022-08-17T20:24:33.006Z,60.10
2022-08-17T20:27:12.499Z,68.20
2022-08-17T20:29:58.224Z,65.38
2022-08-17T20:32:30.478Z,69.70
2022-08-17T20:35:04.166Z,57.42
2022-08-17T20:37:33.231Z,68.43
2022-08-17T20:40:00.720Z,61.30
2022-08-17T20:42:30.035Z,65.53
2022-08-17T20:45:01.764Z,59.20
2022-08-17T20:47:55.101Z,66.53
2022-08-17T20:50:33.572Z,67.53
2022-08-17T20:53:02.481Z,63.25
2022-08-17T20:55:36.076Z,56.53
2022-08-17T20:58:19.435Z,64.35
2022-08-17T21:00:47.730Z,49.97
2022-08-17T21:03:22.786Z,50.50
2022-08-17T21:06:12.568Z,49.67
2022-08-17T21:08:53.849Z,48.95
2022-08-17T21:12:02.430Z,52.08
2022-08-17T21:14:21.133Z,48.15
2022-08-17T21:17:07.079Z,52.20
2022-08-17T21:19:49.030Z,46.65
2022-08-17T21:22:31.067Z,53.20
2022-08-17T21:25:08.442Z,48.33
2022-08-17T21:27:46.182Z,54.35
2022-08-17T21:30:15.747Z,54.50
2022-08-17T21:32:45.275Z,58.78
2022-08-17T21:35:12.801Z,49.80
2022-08-17T21:37:43.641Z,52.15
2022-08-17T21:40:12.591Z,63.20
2022-08-17T21:42:46.653Z,49.17
2022-08-17T21:45:16.710Z,52.65
2022-08-17T21:47:48.982Z,62.47
2022-08-17T21:50:22.459Z,47.85
2022-08-17T21:52:51.575Z,54.53
2022-08-17T21:55:28.145Z,53.80
2022-08-17T21:58:13.699Z,54.92
2022-08-17T22:00:44.183Z,60.55
2022-08-17T22:03:23.636Z,53.08
2022-08-17T22:05:51.472Z,49.38
2022-08-17T22:08:21.004Z,56.28
2022-08-17T22:10:51.007Z,53.10
2022-08-17T22:13:18.198Z,62.77
2022-08-17T22:15:48.556Z,74.97
2022-08-17T22:18:20.223Z,68.95
2022-08-17T22:20:52.876Z,60.88
2022-08-17T22:23:42.284Z,56.35
2022-08-17T22:26:13.362Z,59.08
2022-08-17T22:28:45.545Z,55.60
2022-08-17T22:31:14.868Z,47.72
2022-08-17T22:33:46.864Z,49.58
2022-08-17T22:36:22.093Z,49.22
2022-08-17T22:38:50.118Z,57.55
2022-08-17T22:41:23.360Z,57.97
2022-08-17T22:43:50.815Z,54.03
2022-08-17T22:46:21.758Z,58.60
2022-08-17T22:48:51.303Z,47.95
2022-08-17T22:51:21.386Z,49.33
2022-08-17T22:54:12.276Z,47.87
2022-08-17T22:57:06.386Z,51.03
2022-08-17T22:59:46.379Z,52.97
2022-08-17T23:02:16.683Z,46.72
2022-08-17T23:04:45.681Z,42.72
2022-08-17T23:07:12.834Z,48.60
2022-08-17T23:09:40.229Z,40.13
2022-08-17T23:12:09.281Z,34.20
2022-08-17T23:14:42.392Z,40.67
2022-08-17T23:17:09.513Z,42.35
2022-08-17T23:19:36.734Z,37.88
2022-08-17T23:22:05.654Z,38.78
2022-08-17T23:24:35.642Z,39.97
2022-08-17T23:27:07.739Z,45.47
2022-08-17T23:29:39.309Z,38.03
2022-08-17T23:32:07.358Z,36.03
2022-08-17T23:34:35.084Z,39.75
2022-08-17T23:37:04.316Z,42.50
2022-08-17T23:39:32.115Z,36.60
2022-08-17T23:42:01.125Z,35.95
2022-08-17T23:44:28.891Z,35.97
2022-08-17T23:46:56.397Z,39.72
2022-08-17T23:49:25.065Z,36.05
2022-08-17T23:51:54.738Z,36.05
2022-08-17T23:54:28.906Z,35.67
2022-08-17T23:56:56.335Z,35.30
2022-08-17T23:59:24.356Z,27.23
